createdAt,value
2022-11-21T00:01:34.252Z,99541.88
2022-11-21T00:04:01.278Z,99529.72
2022-11-21T00:06:28.518Z,99550.72
2022-11-21T00:08:56.440Z,99540.63
2022-11-21T00:11:23.500Z,99528.81
2022-11-21T00:13:50.543Z,99549.63
2022-11-21T00:16:17.596Z,99548.16
2022-11-21T00:18:44.826Z,99534.41
2022-11-21T00:21:16.893Z,99528.06
2022-11-21T00:23:45.610Z,99545.13
2022-11-21T00:26:14.083Z,99524.75
2022-11-21T00:28:41.635Z,99550.81
2022-11-21T00:31:08.992Z,99524.31
2022-11-21T00:33:37.045Z,99543.28
2022-11-21T00:36:10.593Z,99543.28
2022-11-21T00:38:38.296Z,99528.25
2022-11-21T00:41:05.827Z,99514.28
2022-11-21T00:43:33.127Z,99528.88
2022-11-21T00:46:02.946Z,99507.69
2022-11-21T00:48:31.746Z,99527.31
2022-11-21T00:51:00.702Z,99522.16
2022-11-21T00:53:28.464Z,99500.41
2022-11-21T00:55:55.782Z,99494.25
2022-11-21T00:58:22.771Z,99495.53
2022-11-21T01:00:50.172Z,99499.13
2022-11-21T01:03:17.744Z,99520.81
2022-11-21T01:05:45.339Z,99498.25
2022-11-21T01:08:12.374Z,99503.19
2022-11-21T01:10:39.469Z,99465.16
2022-11-21T01:13:06.479Z,99499.00
2022-11-21T01:15:34.887Z,99514.88
2022-11-21T01:18:01.860Z,99483.56
2022-11-21T01:20:28.827Z,99499.31
2022-11-21T01:22:55.844Z,99475.66
2022-11-21T01:25:22.920Z,99490.31
2022-11-21T01:27:49.973Z,99486.31
2022-11-21T01:30:19.359Z,99452.25
2022-11-21T01:32:52.591Z,99459.69
2022-11-21T01:35:25.900Z,99463.00
2022-11-21T01:37:53.143Z,99450.16
2022-11-21T01:40:20.270Z,99446.72
2022-11-21T01:43:07.502Z,99449.03
2022-11-21T01:46:09.710Z,99448.22
2022-11-21T01:48:36.748Z,99430.94
2022-11-21T01:51:19.435Z,99422.25
2022-11-21T01:54:08.937Z,99425.69
2022-11-21T01:56:44.279Z,99429.72
2022-11-21T01:59:18.033Z,99452.59
2022-11-21T02:01:47.175Z,99441.22
2022-11-21T02:04:14.484Z,99444.72
2022-11-21T02:06:42.209Z,99434.75
2022-11-21T02:09:09.337Z,99451.88
2022-11-21T02:11:44.986Z,99432.53
2022-11-21T02:14:12.316Z,99450.03
2022-11-21T02:16:40.047Z,99436.09
2022-11-21T02:19:10.836Z,99412.81
2022-11-21T02:21:56.172Z,99407.13
2022-11-21T02:24:35.366Z,99410.41
2022-11-21T02:27:02.841Z,99419.78
2022-11-21T02:29:30.815Z,99430.19
2022-11-21T02:32:05.608Z,99427.59
2022-11-21T02:34:33.738Z,99412.66
2022-11-21T02:37:02.695Z,99400.91
2022-11-21T02:39:37.178Z,99412.28
2022-11-21T02:42:09.202Z,99400.72
2022-11-21T02:44:47.260Z,99405.13
2022-11-21T02:47:14.290Z,99417.06
2022-11-21T02:49:51.006Z,99391.47
2022-11-21T02:52:17.922Z,99390.66
2022-11-21T02:54:44.971Z,99386.91
2022-11-21T02:57:11.931Z,99373.91
2022-11-21T02:59:39.386Z,99400.56
2022-11-21T03:02:06.625Z,99399.75
2022-11-21T03:04:33.761Z,99418.25
2022-11-21T03:07:03.673Z,99392.22
2022-11-21T03:09:30.744Z,99391.41
2022-11-21T03:11:57.813Z,99400.91
2022-11-21T03:14:24.909Z,99361.88
2022-11-21T03:16:51.952Z,99392.59
2022-11-21T03:19:18.912Z,99395.78
2022-11-21T03:21:45.972Z,99393.69
2022-11-21T03:24:13.115Z,99406.34
2022-11-21T03:26:40.570Z,99409.00
2022-11-21T03:29:07.722Z,99401.22
2022-11-21T03:31:34.911Z,99405.59
2022-11-21T03:34:02.163Z,99406.81
2022-11-21T03:36:29.243Z,99423.28
2022-11-21T03:38:59.545Z,99404.59
2022-11-21T03:41:30.047Z,99430.25
2022-11-21T03:44:02.642Z,99440.81
2022-11-21T03:46:32.339Z,99422.91
2022-11-21T03:49:00.004Z,99419.63
2022-11-21T03:51:27.736Z,99417.44
2022-11-21T03:53:54.906Z,99422.91
2022-11-21T03:56:22.110Z,99418.72
2022-11-21T03:58:49.451Z,99422.47
2022-11-21T04:01:16.797Z,99422.00
2022-11-21T04:03:44.956Z,99371.88
2022-11-21T04:06:15.626Z,99374.88
2022-11-21T04:08:43.865Z,99393.16
2022-11-21T04:11:11.583Z,99403.25
2022-11-21T04:13:39.378Z,99409.91
2022-11-21T04:16:07.386Z,99410.53
2022-11-21T04:18:35.192Z,99414.41
2022-11-21T04:21:04.399Z,99400.84
2022-11-21T04:23:32.059Z,99411.94
2022-11-21T04:25:59.797Z,99388.66
2022-11-21T04:28:27.030Z,99386.09
2022-11-21T04:30:55.158Z,99369.41
2022-11-21T04:33:22.802Z,99377.03
2022-11-21T04:35:50.607Z,99371.59
2022-11-21T04:38:18.151Z,99377.19
2022-11-21T04:40:45.588Z,99368.47
2022-11-21T04:43:12.774Z,99386.25
2022-11-21T04:45:40.090Z,99382.78
2022-11-21T04:48:07.402Z,99384.16
2022-11-21T04:50:34.700Z,99377.94
2022-11-21T04:53:03.175Z,99364.00
2022-11-21T04:55:32.143Z,99337.72
2022-11-21T04:58:00.285Z,99372.97
2022-11-21T05:00:27.840Z,99359.53
2022-11-21T05:02:55.388Z,99369.59
2022-11-21T05:05:22.753Z,99383.81
2022-11-21T05:07:49.952Z,99356.28
2022-11-21T05:10:17.236Z,99351.09
2022-11-21T05:13:05.345Z,99393.59
2022-11-21T05:15:32.474Z,99356.50
2022-11-21T05:18:00.199Z,99349.72
2022-11-21T05:20:34.401Z,99360.88
2022-11-21T05:23:03.713Z,99364.81
2022-11-21T05:25:35.887Z,99376.66
2022-11-21T05:28:02.892Z,99358.13
2022-11-21T05:30:29.852Z,99358.78
2022-11-21T05:32:56.914Z,99361.50
2022-11-21T05:35:24.005Z,99342.19
2022-11-21T05:37:58.293Z,99346.31
2022-11-21T05:40:26.137Z,99352.19
2022-11-21T05:43:11.753Z,99346.88
2022-11-21T05:45:38.753Z,99363.09
2022-11-21T05:48:09.010Z,99349.34
2022-11-21T05:50:36.985Z,99369.03
2022-11-21T05:53:06.471Z,99356.94
2022-11-21T05:55:36.654Z,99353.56
2022-11-21T05:58:03.746Z,99359.72
2022-11-21T06:00:30.898Z,99342.84
2022-11-21T06:03:16.981Z,99358.06
2022-11-21T06:05:44.956Z,99331.84
2022-11-21T06:08:12.279Z,99353.09
2022-11-21T06:10:39.551Z,99364.16
2022-11-21T06:13:22.183Z,99353.72
2022-11-21T06:16:10.103Z,99346.50
2022-11-21T06:18:40.327Z,99321.00
2022-11-21T06:21:17.031Z,99354.53
2022-11-21T06:23:47.179Z,99352.63
2022-11-21T06:26:18.421Z,99351.50
2022-11-21T06:28:46.702Z,99359.50
2022-11-21T06:31:27.641Z,99360.69
2022-11-21T06:33:56.871Z,99379.88
2022-11-21T06:36:25.920Z,99349.69
2022-11-21T06:38:54.994Z,99352.16
2022-11-21T06:41:24.366Z,99347.31
2022-11-21T06:43:51.904Z,99332.66
2022-11-21T06:46:19.192Z,99345.81
2022-11-21T06:48:46.222Z,99337.31
2022-11-21T06:51:18.428Z,99322.13
2022-11-21T06:53:46.413Z,99364.34
2022-11-21T06:56:14.756Z,99363.28
2022-11-21T06:58:41.780Z,99345.41
2022-11-21T07:01:10.760Z,99351.25
2022-11-21T07:03:38.329Z,99349.06
2022-11-21T07:06:06.409Z,99373.16
2022-11-21T07:08:36.219Z,99350.63
2022-11-21T07:11:25.582Z,99355.81
2022-11-21T07:13:53.652Z,99365.00
2022-11-21T07:16:30.850Z,99331.66
2022-11-21T07:18:58.250Z,99355.28
2022-11-21T07:21:25.387Z,99344.13
2022-11-21T07:23:52.416Z,99335.97
2022-11-21T07:26:22.525Z,99336.59
2022-11-21T07:28:49.592Z,99362.25
2022-11-21T07:31:16.902Z,99371.88
2022-11-21T07:33:44.007Z,99356.00
2022-11-21T07:36:12.336Z,99355.06
2022-11-21T07:38:41.050Z,99348.53
2022-11-21T07:41:08.169Z,99344.50
2022-11-21T07:43:35.308Z,99355.50
2022-11-21T07:46:02.791Z,99357.13
2022-11-21T07:48:29.954Z,99335.78
2022-11-21T07:50:57.046Z,99338.78
2022-11-21T07:53:24.437Z,99344.22
2022-11-21T07:55:51.690Z,99330.09
2022-11-21T07:58:18.879Z,99336.88
2022-11-21T08:00:46.134Z,99333.63
2022-11-21T08:03:13.984Z,99344.34
2022-11-21T08:05:43.175Z,99351.66
2022-11-21T08:08:11.861Z,99344.50
2022-11-21T08:10:42.086Z,99356.66
2022-11-21T08:13:11.266Z,99341.75
2022-11-21T08:15:38.457Z,99355.75
2022-11-21T08:18:13.986Z,99358.31
2022-11-21T08:20:41.745Z,99357.09
2022-11-21T08:23:10.993Z,99347.03
2022-11-21T08:25:39.297Z,99366.16
2022-11-21T08:28:07.574Z,99362.91
2022-11-21T08:30:36.365Z,99359.19
2022-11-21T08:33:04.658Z,99341.34
2022-11-21T08:35:31.745Z,99337.53
2022-11-21T08:38:00.214Z,99347.69
2022-11-21T08:40:29.561Z,99354.25
2022-11-21T08:43:08.301Z,99356.78
2022-11-21T08:45:36.520Z,99344.88
2022-11-21T08:48:04.041Z,99352.31
2022-11-21T08:50:32.186Z,99351.34
2022-11-21T08:53:01.546Z,99353.44
2022-11-21T08:55:29.050Z,99342.63
2022-11-21T08:57:56.864Z,99364.00
2022-11-21T09:00:24.136Z,99344.31
2022-11-21T09:02:51.249Z,99343.16
2022-11-21T09:05:18.899Z,99342.16
2022-11-21T09:07:47.297Z,99344.66
2022-11-21T09:10:15.246Z,99323.06
2022-11-21T09:12:42.286Z,99325.53
2022-11-21T09:15:29.303Z,99331.50
2022-11-21T09:18:22.591Z,99353.66
2022-11-21T09:20:50.492Z,99322.56
2022-11-21T09:23:18.056Z,99332.09
2022-11-21T09:25:46.976Z,99311.69
2022-11-21T09:28:15.389Z,99345.44
2022-11-21T09:30:43.474Z,99333.53
2022-11-21T09:33:12.473Z,99337.63
2022-11-21T09:35:39.774Z,99337.25
2022-11-21T09:38:10.684Z,99335.59
2022-11-21T09:40:44.248Z,99334.16
2022-11-21T09:43:36.178Z,99332.38
2022-11-21T09:46:29.027Z,99322.56
2022-11-21T09:49:04.748Z,99314.34
2022-11-21T09:51:32.215Z,99310.03
2022-11-21T09:54:04.761Z,99310.25
2022-11-21T09:56:36.928Z,99292.81
2022-11-21T09:59:06.680Z,99303.72
2022-11-21T10:01:34.193Z,99302.47
2022-11-21T10:04:03.321Z,99305.16
2022-11-21T10:06:36.710Z,99295.91
2022-11-21T10:09:15.633Z,99297.13
2022-11-21T10:12:29.519Z,99288.31
2022-11-21T10:15:15.805Z,99271.66
2022-11-21T10:17:42.740Z,99273.66
2022-11-21T10:20:37.838Z,99294.78
2022-11-21T10:23:11.035Z,99301.94
2022-11-21T10:25:39.743Z,99298.44
2022-11-21T10:28:22.750Z,99298.88
2022-11-21T10:30:51.988Z,99271.38
2022-11-21T10:33:28.581Z,99275.28
2022-11-21T10:36:00.345Z,99289.31
2022-11-21T10:38:29.640Z,99271.19
2022-11-21T10:41:07.545Z,99255.38
2022-11-21T10:44:02.115Z,99260.34
2022-11-21T10:46:29.204Z,99254.78
2022-11-21T10:48:59.652Z,99252.09
2022-11-21T10:51:49.810Z,99258.31
2022-11-21T10:54:37.415Z,99249.63
2022-11-21T10:57:16.151Z,99259.75
2022-11-21T11:00:23.263Z,99241.44
2022-11-21T11:03:16.097Z,99252.16
2022-11-21T11:05:56.050Z,99247.84
2022-11-21T11:08:23.191Z,99238.81
2022-11-21T11:11:08.207Z,99237.38
2022-11-21T11:13:57.349Z,99224.66
2022-11-21T11:16:26.142Z,99245.19
2022-11-21T11:18:56.411Z,99242.31
2022-11-21T11:21:29.019Z,99244.72
2022-11-21T11:24:09.541Z,99232.19
2022-11-21T11:26:49.293Z,99233.63
2022-11-21T11:29:23.815Z,99228.72
2022-11-21T11:32:01.169Z,99226.88
2022-11-21T11:34:47.568Z,99217.63
2022-11-21T11:37:41.627Z,99221.53
2022-11-21T11:40:36.090Z,99234.69
2022-11-21T11:43:43.220Z,99241.22
2022-11-21T11:47:05.319Z,99237.31
2022-11-21T11:50:15.220Z,99232.78
2022-11-21T11:52:59.417Z,99229.66
2022-11-21T11:55:32.965Z,99226.38
2022-11-21T11:58:03.250Z,99227.97
2022-11-21T12:00:48.533Z,99215.44
2022-11-21T12:03:26.212Z,99220.34
2022-11-21T12:06:09.172Z,99199.78
2022-11-21T12:08:47.584Z,99205.09
2022-11-21T12:11:51.170Z,99209.16
2022-11-21T12:15:11.710Z,99221.09
2022-11-21T12:17:38.796Z,99223.34
2022-11-21T12:20:20.947Z,99208.75
2022-11-21T12:22:50.418Z,99217.59
2022-11-21T12:25:22.096Z,99217.13
2022-11-21T12:27:53.974Z,99225.88
2022-11-21T12:30:39.586Z,99227.72
2022-11-21T12:33:22.963Z,99222.59
2022-11-21T12:36:35.874Z,99208.81
2022-11-21T12:39:18.043Z,99228.50
2022-11-21T12:42:22.687Z,99254.28
2022-11-21T12:44:56.807Z,99242.38
2022-11-21T12:48:01.315Z,99234.34
2022-11-21T12:50:58.912Z,99239.81
2022-11-21T12:54:10.707Z,99239.81
2022-11-21T12:56:59.505Z,99222.91
2022-11-21T12:59:27.114Z,99220.03
2022-11-21T13:02:01.061Z,99219.13
2022-11-21T13:04:30.575Z,99228.50
2022-11-21T13:06:59.125Z,99225.59
2022-11-21T13:09:28.537Z,99212.22
2022-11-21T13:12:12.717Z,99210.19
2022-11-21T13:14:50.094Z,99220.56
2022-11-21T13:17:26.251Z,99216.28
2022-11-21T13:19:56.796Z,99214.19
2022-11-21T13:22:36.469Z,99210.06
2022-11-21T13:25:32.940Z,99217.00
2022-11-21T13:28:18.707Z,99215.75
2022-11-21T13:30:56.604Z,99212.63
2022-11-21T13:33:35.995Z,99187.94
2022-11-21T13:36:08.084Z,99199.44
2022-11-21T13:38:55.230Z,99195.34
2022-11-21T13:41:52.933Z,99192.03
2022-11-21T13:44:36.050Z,99200.84
2022-11-21T13:47:27.579Z,99202.69
2022-11-21T13:50:15.089Z,99188.50
2022-11-21T13:52:58.022Z,99197.38
2022-11-21T13:55:37.873Z,99187.75
2022-11-21T13:58:23.520Z,99177.63
2022-11-21T14:01:06.299Z,99204.09
2022-11-21T14:03:58.819Z,99186.00
2022-11-21T14:06:43.467Z,99185.03
2022-11-21T14:09:13.921Z,99195.28
2022-11-21T14:12:19.839Z,99186.72
2022-11-21T14:15:01.152Z,99182.81
2022-11-21T14:17:36.461Z,99186.34
2022-11-21T14:20:35.135Z,99189.00
2022-11-21T14:23:16.053Z,99175.41
2022-11-21T14:26:23.077Z,99170.97
2022-11-21T14:28:50.536Z,99190.66
2022-11-21T14:31:21.435Z,99177.50
2022-11-21T14:33:49.146Z,99180.53
2022-11-21T14:36:30.369Z,99188.94
2022-11-21T14:42:03.075Z,99193.84
2022-11-21T14:44:30.700Z,99198.56
2022-11-21T14:47:26.739Z,99196.28
2022-11-21T14:50:07.772Z,99177.56
2022-11-21T14:52:36.913Z,99188.75
2022-11-21T14:55:29.205Z,99187.50
2022-11-21T14:58:03.252Z,99193.91
2022-11-21T15:03:22.700Z,99204.34
2022-11-21T15:06:05.307Z,99188.13
2022-11-21T15:11:32.887Z,99191.78
2022-11-21T15:14:16.560Z,99174.97
2022-11-21T15:16:50.041Z,99170.28
2022-11-21T15:19:21.110Z,99179.91
2022-11-21T15:21:50.391Z,99164.31
2022-11-21T15:24:28.458Z,99165.16
2022-11-21T15:26:55.918Z,99158.13
2022-11-21T15:29:23.682Z,99155.69
2022-11-21T15:32:15.728Z,99134.56
2022-11-21T15:34:47.263Z,99152.31
2022-11-21T15:37:18.670Z,99165.88
2022-11-21T15:39:50.554Z,99167.44
2022-11-21T15:42:34.325Z,99159.47
2022-11-21T15:45:16.770Z,99109.91
2022-11-21T15:47:47.955Z,99124.63
2022-11-21T15:50:16.385Z,99106.88
2022-11-21T15:52:49.022Z,99126.16
2022-11-21T15:55:30.356Z,99129.69
2022-11-21T15:57:57.907Z,99148.03
2022-11-21T16:00:27.702Z,99142.72
2022-11-21T16:02:56.141Z,99149.00
2022-11-21T16:05:31.514Z,99140.97
2022-11-21T16:08:00.313Z,99147.78
2022-11-21T16:10:28.779Z,99119.31
2022-11-21T16:12:56.429Z,99106.97
2022-11-21T16:15:24.098Z,99146.78
2022-11-21T16:17:53.118Z,99103.75
2022-11-21T16:20:20.445Z,99144.75
2022-11-21T16:22:48.286Z,99151.09
2022-11-21T16:25:17.097Z,99169.28
2022-11-21T16:27:44.092Z,99167.69
2022-11-21T16:30:12.560Z,99173.00
2022-11-21T16:32:39.633Z,99165.59
2022-11-21T16:35:07.289Z,99154.50
2022-11-21T16:37:34.573Z,99164.94
2022-11-21T16:40:12.938Z,99163.28
2022-11-21T16:42:40.031Z,99147.66
2022-11-21T16:45:10.695Z,99169.81
2022-11-21T16:47:47.418Z,99163.66
2022-11-21T16:50:17.759Z,99137.78
2022-11-21T16:52:45.681Z,99139.81
2022-11-21T16:55:13.397Z,99156.34
2022-11-21T16:57:42.729Z,99152.22
2022-11-21T17:00:13.857Z,99153.69
2022-11-21T17:02:47.146Z,99139.06
2022-11-21T17:05:15.252Z,99156.16
2022-11-21T17:07:42.788Z,99161.56
2022-11-21T17:10:13.946Z,99135.69
2022-11-21T17:12:47.140Z,99176.09
2022-11-21T17:15:15.446Z,99135.19
2022-11-21T17:17:42.774Z,99112.06
2022-11-21T17:20:12.872Z,99149.19
2022-11-21T17:22:41.083Z,99127.47
2022-11-21T17:25:09.255Z,99139.47
2022-11-21T17:27:38.289Z,99150.28
2022-11-21T17:30:06.665Z,99122.75
2022-11-21T17:32:34.910Z,99119.31
2022-11-21T17:35:02.750Z,99136.22
2022-11-21T17:37:30.721Z,99139.47
2022-11-21T17:40:11.856Z,99084.03
2022-11-21T17:42:41.565Z,99113.19
2022-11-21T17:45:09.814Z,99124.16
2022-11-21T17:47:38.286Z,99061.69
2022-11-21T17:50:06.708Z,99127.88
2022-11-21T17:52:44.546Z,99128.94
2022-11-21T17:55:14.936Z,99086.41
2022-11-21T17:57:42.420Z,99151.41
2022-11-21T18:00:10.791Z,99126.63
2022-11-21T18:02:38.525Z,99123.06
2022-11-21T18:05:06.250Z,99115.41
2022-11-21T18:07:38.027Z,99123.88
2022-11-21T18:10:42.104Z,99138.06
2022-11-21T18:13:07.640Z,99135.41
2022-11-21T18:15:35.849Z,99126.34
2022-11-21T18:18:04.803Z,99103.63
2022-11-21T18:20:32.769Z,99107.28
2022-11-21T18:22:59.938Z,99107.88
2022-11-21T18:25:26.955Z,99110.34
2022-11-21T18:27:54.917Z,99101.88
2022-11-21T18:30:22.370Z,99075.78
2022-11-21T18:32:49.882Z,99113.31
2022-11-21T18:35:17.037Z,99091.34
2022-11-21T18:37:44.051Z,99088.06
2022-11-21T18:40:11.994Z,99105.09
2022-11-21T18:42:39.692Z,99096.31
2022-11-21T18:45:07.435Z,99073.94
2022-11-21T18:47:35.646Z,99072.88
2022-11-21T18:50:02.756Z,99079.72
2022-11-21T18:52:34.417Z,99067.56
2022-11-21T18:55:04.740Z,99078.06
2022-11-21T18:57:31.816Z,99073.50
2022-11-21T19:00:00.208Z,99052.16
2022-11-21T19:02:27.437Z,99059.78
2022-11-21T19:04:54.680Z,99072.88
2022-11-21T19:07:21.959Z,99054.59
2022-11-21T19:09:49.348Z,99048.84
2022-11-21T19:12:17.735Z,99066.94
2022-11-21T19:14:45.240Z,99057.91
2022-11-21T19:17:12.353Z,99056.00
2022-11-21T19:19:39.599Z,99042.72
2022-11-21T19:22:06.938Z,99063.78
2022-11-21T19:24:34.212Z,99063.41
2022-11-21T19:27:02.258Z,99046.38
2022-11-21T19:29:30.494Z,99044.75
2022-11-21T19:31:58.090Z,99039.88
2022-11-21T19:34:25.110Z,99040.94
2022-11-21T19:36:53.146Z,99049.16
2022-11-21T19:39:20.314Z,99027.72
2022-11-21T19:41:49.951Z,99041.66
2022-11-21T19:44:20.829Z,99026.84
2022-11-21T19:46:56.119Z,99015.09
2022-11-21T19:49:23.464Z,99007.94
2022-11-21T19:51:50.712Z,99045.63
2022-11-21T19:54:18.629Z,99019.19
2022-11-21T19:56:45.855Z,99019.13
2022-11-21T19:59:14.006Z,99022.66
2022-11-21T20:01:41.560Z,99025.44
2022-11-21T20:04:11.772Z,99013.63
2022-11-21T20:06:41.908Z,99030.25
2022-11-21T20:09:16.971Z,99011.22
2022-11-21T20:11:47.034Z,99012.00
2022-11-21T20:14:21.393Z,99028.41
2022-11-21T20:16:49.923Z,99007.56
2022-11-21T20:19:21.340Z,99037.84
2022-11-21T20:21:48.788Z,98989.91
2022-11-21T20:24:16.408Z,99004.28
2022-11-21T20:26:44.638Z,99000.94
2022-11-21T20:29:13.608Z,99003.63
2022-11-21T20:31:51.882Z,99009.78
2022-11-21T20:34:19.965Z,98999.53
2022-11-21T20:36:47.249Z,99014.38
2022-11-21T20:39:17.006Z,99023.88
2022-11-21T20:41:45.730Z,98998.75
2022-11-21T20:47:23.279Z,99009.00
2022-11-21T20:49:53.567Z,99005.09
2022-11-21T20:55:13.879Z,98995.97
2022-11-21T20:57:42.121Z,98999.31
2022-11-21T21:00:11.704Z,99002.44
2022-11-21T21:02:38.992Z,98981.69
2022-11-21T21:05:07.108Z,98990.03
2022-11-21T21:07:34.120Z,98993.66
2022-11-21T21:10:01.205Z,98964.28
2022-11-21T21:12:32.320Z,98967.97
2022-11-21T21:14:59.462Z,98975.53
2022-11-21T21:17:26.550Z,98985.53
2022-11-21T21:19:53.706Z,98974.44
2022-11-21T21:22:20.715Z,98956.84
2022-11-21T21:24:47.777Z,98971.88
2022-11-21T21:27:14.721Z,98973.28
2022-11-21T21:29:41.665Z,98972.84
2022-11-21T21:32:13.398Z,98973.47
2022-11-21T21:34:41.477Z,98948.50
2022-11-21T21:37:08.410Z,98958.53
2022-11-21T21:39:35.594Z,98957.47
2022-11-21T21:42:02.769Z,98962.41
2022-11-21T21:44:33.200Z,98959.13
2022-11-21T21:47:01.589Z,98954.19
2022-11-21T21:49:28.976Z,98951.50
2022-11-21T21:51:55.972Z,98963.75
2022-11-21T21:54:23.017Z,98973.84
2022-11-21T21:56:50.640Z,98957.66
2022-11-21T21:59:19.892Z,98955.59
2022-11-21T22:01:47.119Z,98953.13
2022-11-21T22:04:14.297Z,98960.53
2022-11-21T22:06:41.316Z,98967.09
2022-11-21T22:09:08.780Z,98956.22
2022-11-21T22:11:38.286Z,98958.94
2022-11-21T22:14:10.300Z,98953.47
2022-11-21T22:16:37.458Z,98936.88
2022-11-21T22:19:04.463Z,98923.78
2022-11-21T22:21:33.913Z,98936.91
2022-11-21T22:24:24.852Z,98924.56
2022-11-21T22:26:50.030Z,98926.00
2022-11-21T22:29:17.217Z,98923.94
2022-11-21T22:31:44.316Z,98908.81
2022-11-21T22:34:14.154Z,98905.16
2022-11-21T22:36:42.217Z,98903.13
2022-11-21T22:39:11.185Z,98878.97
2022-11-21T22:41:38.334Z,98875.84
2022-11-21T22:44:05.558Z,98862.59
2022-11-21T22:46:32.817Z,98846.28
2022-11-21T22:48:59.886Z,98849.78
2022-11-21T22:51:31.637Z,98864.16
2022-11-21T22:53:58.653Z,98841.63
2022-11-21T22:56:27.231Z,98844.50
2022-11-21T22:58:54.525Z,98842.09
2022-11-21T23:01:24.106Z,98835.56
2022-11-21T23:03:53.312Z,98858.66
2022-11-21T23:06:23.991Z,98835.56
2022-11-21T23:08:55.618Z,98828.00
2022-11-21T23:11:28.577Z,98844.16
2022-11-21T23:13:57.160Z,98842.31
2022-11-21T23:16:25.883Z,98842.50
2022-11-21T23:18:54.508Z,98838.84
2022-11-21T23:21:21.698Z,98845.16
2022-11-21T23:23:48.773Z,98830.25
2022-11-21T23:26:15.866Z,98838.03
2022-11-21T23:28:43.017Z,98838.22
2022-11-21T23:31:10.660Z,98835.34
2022-11-21T23:33:37.739Z,98834.91
2022-11-21T23:36:05.519Z,98822.56
2022-11-21T23:38:32.564Z,98819.09
2022-11-21T23:40:59.539Z,98808.47
2022-11-21T23:43:28.948Z,98794.97
2022-11-21T23:45:56.063Z,98803.16
2022-11-21T23:48:24.393Z,98772.13
2022-11-21T23:50:51.661Z,98777.31
2022-11-21T23:53:22.509Z,98788.38
2022-11-21T23:55:50.610Z,98781.63
2022-11-21T23:58:18.961Z,98784.91
